Time;durP1;ratioP1;P1;durP2;ratioP2;P2;SDS_P1;SDS_P2;PMS_P1;PMS_P2;Temp;Humidity;BMP_temperature;BMP_pressure;BME280_temperature;BME280_humidity;BME280_pressure;Samples;Min_cycle;Max_cycle;Signal;HPM_P1;HPM_P2
2022/04/08 00:01:08;;;;;;;4.85;1.45;;;;;;;;;;5103860;28;20207;-67
2022/04/08 00:03:34;;;;;;;4.05;1.30;;;;;;;;;;5104173;28;20200;-67
2022/04/08 00:06:02;;;;;;;2.97;1.30;;;;;;;;;;5103740;28;20228;-67
2022/04/08 00:08:28;;;;;;;6.40;1.50;;;;;;;;;;5103770;28;20209;-67
2022/04/08 00:10:54;;;;;;;2.95;1.30;;;;;;;;;;5103917;28;20195;-67
2022/04/08 00:13:22;;;;;;;4.75;1.20;;;;;;;;;;5103655;28;20369;-67
2022/04/08 00:15:48;;;;;;;5.72;1.27;;;;;;;;;;5103890;28;20192;-67
2022/04/08 00:18:14;;;;;;;9.20;1.25;;;;;;;;;;5103692;28;20210;-67
2022/04/08 00:20:40;;;;;;;5.55;1.25;;;;;;;;;;5103708;28;20256;-67
2022/04/08 00:23:07;;;;;;;6.70;1.45;;;;;;;;;;5103643;28;20557;-67
2022/04/08 00:25:33;;;;;;;6.88;1.52;;;;;;;;;;5103488;28;20219;-67
2022/04/08 00:27:59;;;;;;;3.05;1.00;;;;;;;;;;5103134;28;20218;-67
2022/04/08 00:30:27;;;;;;;4.68;1.30;;;;;;;;;;5103210;28;20203;-67
2022/04/08 00:32:53;;;;;;;3.65;1.33;;;;;;;;;;5103626;28;20559;-67
2022/04/08 00:35:19;;;;;;;2.53;0.73;;;;;;;;;;5103466;28;20395;-67
2022/04/08 00:37:46;;;;;;;5.35;1.02;;;;;;;;;;5103376;28;20257;-67
2022/04/08 00:40:12;;;;;;;3.40;1.30;;;;;;;;;;5103216;28;20723;-66
2022/04/08 00:42:40;;;;;;;7.63;1.75;;;;;;;;;;5103116;28;20486;-67
2022/04/08 00:45:06;;;;;;;2.90;1.20;;;;;;;;;;5102979;28;20219;-67
2022/04/08 00:47:36;;;;;;;4.88;1.20;;;;;;;;;;5103056;28;20199;-67
2022/04/08 00:50:03;;;;;;;6.95;1.50;;;;;;;;;;5103101;28;20196;-67
2022/04/08 00:52:30;;;;;;;4.20;1.20;;;;;;;;;;5103172;28;20420;-66
2022/04/08 00:54:56;;;;;;;4.25;1.23;;;;;;;;;;5102911;28;20195;-67
2022/04/08 00:57:23;;;;;;;3.75;1.40;;;;;;;;;;5102831;28;20214;-66
2022/04/08 00:59:50;;;;;;;4.13;1.17;;;;;;;;;;5103109;28;20380;-66
2022/04/08 01:02:16;;;;;;;2.80;1.13;;;;;;;;;;5103052;28;20203;-67
2022/04/08 01:04:44;;;;;;;3.95;1.45;;;;;;;;;;5103146;28;20309;-67
2022/04/08 01:07:10;;;;;;;6.10;1.30;;;;;;;;;;5102559;28;20283;-67
2022/04/08 01:09:36;;;;;;;2.67;0.95;;;;;;;;;;5102683;28;20196;-66
2022/04/08 01:12:03;;;;;;;4.93;1.25;;;;;;;;;;5102975;28;20203;-67
2022/04/08 01:14:29;;;;;;;3.20;1.25;;;;;;;;;;5102739;28;20196;-67
2022/04/08 01:16:56;;;;;;;6.43;1.48;;;;;;;;;;5102583;28;20419;-67
2022/04/08 01:19:22;;;;;;;2.38;0.90;;;;;;;;;;5102648;28;20425;-67
2022/04/08 01:21:50;;;;;;;4.38;1.20;;;;;;;;;;5102622;28;20196;-67
2022/04/08 01:24:17;;;;;;;4.22;1.10;;;;;;;;;;5102396;28;20424;-67
2022/04/08 01:26:44;;;;;;;4.60;1.17;;;;;;;;;;5102263;28;20243;-67
2022/04/08 01:29:10;;;;;;;7.57;1.60;;;;;;;;;;5102506;28;20200;-67
2022/04/08 01:31:43;;;;;;;3.13;1.35;;;;;;;;;;5102422;28;20195;-67
2022/04/08 01:34:09;;;;;;;5.45;1.55;;;;;;;;;;5102475;28;20204;-67
2022/04/08 01:36:37;;;;;;;6.28;1.10;;;;;;;;;;5102082;28;20400;-67
2022/04/08 01:39:03;;;;;;;4.97;1.38;;;;;;;;;;5102338;28;20495;-67
2022/04/08 01:41:31;;;;;;;4.30;1.30;;;;;;;;;;5102573;28;20430;-66
2022/04/08 01:43:58;;;;;;;7.00;1.15;;;;;;;;;;5104736;28;20392;-66
2022/04/08 01:46:25;;;;;;;3.75;0.95;;;;;;;;;;5106351;28;20261;-66
2022/04/08 01:48:54;;;;;;;4.22;1.60;;;;;;;;;;5106596;28;20241;-66
2022/04/08 01:51:21;;;;;;;5.65;1.25;;;;;;;;;;5106393;28;20192;-66
2022/04/08 01:53:47;;;;;;;3.80;1.30;;;;;;;;;;5106724;28;20199;-66
2022/04/08 01:56:14;;;;;;;5.55;1.38;;;;;;;;;;5106224;28;20195;-67
2022/04/08 01:58:40;;;;;;;8.43;1.45;;;;;;;;;;5106445;28;20196;-67
2022/04/08 02:01:08;;;;;;;2.20;1.23;;;;;;;;;;5106278;28;20203;-67
2022/04/08 02:03:34;;;;;;;5.72;1.42;;;;;;;;;;5106430;28;20196;-66
2022/04/08 02:06:00;;;;;;;3.22;1.05;;;;;;;;;;5106284;28;20219;-67
2022/04/08 02:08:27;;;;;;;4.75;1.05;;;;;;;;;;5106183;28;20199;-67
2022/04/08 02:10:54;;;;;;;9.73;1.33;;;;;;;;;;5106216;28;20199;-67
2022/04/08 02:13:20;;;;;;;4.95;1.02;;;;;;;;;;5105882;28;20203;-67
2022/04/08 02:15:47;;;;;;;5.10;1.08;;;;;;;;;;5106283;28;20203;-67
2022/04/08 02:18:15;;;;;;;4.55;1.35;;;;;;;;;;5105660;28;20196;-66
2022/04/08 02:20:42;;;;;;;2.53;1.25;;;;;;;;;;5106113;28;20196;-66
2022/04/08 02:23:09;;;;;;;4.80;0.98;;;;;;;;;;5105960;28;20217;-66
2022/04/08 02:25:35;;;;;;;2.95;0.98;;;;;;;;;;5105755;28;20196;-66
2022/04/08 02:28:02;;;;;;;3.28;0.80;;;;;;;;;;5105438;28;20241;-66
2022/04/08 02:30:28;;;;;;;4.93;1.20;;;;;;;;;;5105713;28;20199;-66
2022/04/08 02:32:56;;;;;;;7.22;1.42;;;;;;;;;;5105923;28;20200;-66
2022/04/08 02:35:23;;;;;;;4.68;1.73;;;;;;;;;;5105694;28;20241;-66
2022/04/08 02:37:50;;;;;;;4.45;1.20;;;;;;;;;;5105513;28;20507;-67
2022/04/08 02:40:16;;;;;;;3.75;1.10;;;;;;;;;;5105598;28;20195;-67
2022/04/08 02:42:42;;;;;;;8.48;1.17;;;;;;;;;;5105354;28;20242;-67
2022/04/08 02:45:09;;;;;;;4.85;1.40;;;;;;;;;;5105663;28;20444;-67
2022/04/08 02:47:40;;;;;;;5.28;1.35;;;;;;;;;;5105254;28;20215;-67
2022/04/08 02:50:06;;;;;;;4.38;1.00;;;;;;;;;;5105579;28;20196;-67
2022/04/08 02:52:34;;;;;;;7.60;1.10;;;;;;;;;;5105472;28;20514;-67
2022/04/08 02:55:00;;;;;;;2.88;1.05;;;;;;;;;;5105363;28;20241;-66
2022/04/08 02:57:26;;;;;;;4.20;1.23;;;;;;;;;;5105229;28;20487;-67
2022/04/08 02:59:53;;;;;;;6.10;1.00;;;;;;;;;;5105288;28;20264;-67
2022/04/08 03:02:19;;;;;;;3.20;1.25;;;;;;;;;;5105291;28;20268;-67
2022/04/08 03:04:45;;;;;;;2.97;0.95;;;;;;;;;;5105180;28;20241;-67
2022/04/08 03:07:12;;;;;;;2.88;1.00;;;;;;;;;;5104768;28;20219;-67
2022/04/08 03:09:39;;;;;;;4.03;1.00;;;;;;;;;;5105542;28;20200;-67
2022/04/08 03:12:06;;;;;;;4.35;1.40;;;;;;;;;;5105159;28;20207;-66
2022/04/08 03:14:32;;;;;;;4.65;1.00;;;;;;;;;;5105119;28;20199;-67
2022/04/08 03:16:58;;;;;;;2.50;1.42;;;;;;;;;;5104797;28;20396;-67
2022/04/08 03:19:25;;;;;;;3.10;1.10;;;;;;;;;;5105031;28;20418;-67
2022/04/08 03:21:51;;;;;;;3.92;1.23;;;;;;;;;;5104875;28;20225;-67
2022/04/08 03:24:17;;;;;;;5.18;1.20;;;;;;;;;;5104664;28;20267;-67
2022/04/08 03:26:47;;;;;;;4.30;1.08;;;;;;;;;;5104393;28;20260;-67
2022/04/08 03:29:14;;;;;;;4.05;1.25;;;;;;;;;;5105065;28;20196;-67
2022/04/08 03:31:40;;;;;;;4.18;1.33;;;;;;;;;;5104603;28;20203;-66
2022/04/08 03:34:06;;;;;;;3.85;1.33;;;;;;;;;;5104574;28;20199;-67
2022/04/08 03:36:33;;;;;;;2.20;1.00;;;;;;;;;;5104281;28;20191;-67
2022/04/08 03:38:59;;;;;;;4.78;1.15;;;;;;;;;;5104439;28;20199;-68
2022/04/08 03:41:25;;;;;;;4.90;1.20;;;;;;;;;;5104562;28;20218;-66
2022/04/08 03:43:53;;;;;;;5.68;1.00;;;;;;;;;;5104551;28;20195;-67
2022/04/08 03:46:19;;;;;;;1.77;0.90;;;;;;;;;;5104637;28;20211;-66
2022/04/08 03:48:45;;;;;;;4.35;1.40;;;;;;;;;;5104337;28;20195;-66
2022/04/08 03:51:12;;;;;;;1.77;0.95;;;;;;;;;;5104310;28;20257;-66
2022/04/08 03:53:38;;;;;;;1.45;0.90;;;;;;;;;;5104399;28;20202;-66
2022/04/08 03:56:05;;;;;;;1.77;1.05;;;;;;;;;;5104065;28;20203;-67
2022/04/08 03:58:32;;;;;;;2.25;1.05;;;;;;;;;;5104143;28;20233;-66
2022/04/08 04:01:00;;;;;;;4.38;1.20;;;;;;;;;;5103989;28;20395;-66
2022/04/08 04:03:26;;;;;;;4.55;1.65;;;;;;;;;;5104106;28;20241;-66
2022/04/08 04:05:52;;;;;;;4.25;1.20;;;;;;;;;;5103177;28;20260;-66
2022/04/08 04:08:19;;;;;;;4.00;1.10;;;;;;;;;;5103899;28;20306;-66
2022/04/08 04:10:45;;;;;;;5.60;1.33;;;;;;;;;;5103933;28;20204;-66
2022/04/08 04:13:11;;;;;;;6.40;1.33;;;;;;;;;;5103948;28;20196;-66
2022/04/08 04:15:38;;;;;;;5.32;1.08;;;;;;;;;;5103788;28;20195;-66
2022/04/08 04:18:05;;;;;;;6.53;1.10;;;;;;;;;;5103483;28;20214;-66
2022/04/08 04:20:32;;;;;;;5.88;1.75;;;;;;;;;;5103577;28;20200;-66
2022/04/08 04:22:58;;;;;;;4.90;1.20;;;;;;;;;;5103609;28;20195;-66
2022/04/08 04:25:25;;;;;;;3.13;1.40;;;;;;;;;;5103672;28;20199;-66
2022/04/08 04:27:52;;;;;;;8.70;1.80;;;;;;;;;;5103404;28;20539;-66
2022/04/08 04:30:18;;;;;;;3.45;1.20;;;;;;;;;;5103531;28;20438;-67
2022/04/08 04:32:44;;;;;;;4.90;1.20;;;;;;;;;;5103784;28;20200;-67
2022/04/08 04:35:12;;;;;;;6.43;1.65;;;;;;;;;;5103269;28;20257;-67
2022/04/08 04:37:38;;;;;;;4.80;1.33;;;;;;;;;;5103054;28;20366;-67
2022/04/08 04:40:05;;;;;;;7.88;1.40;;;;;;;;;;5103477;28;20422;-67
2022/04/08 04:42:32;;;;;;;2.42;1.27;;;;;;;;;;5103409;28;20496;-67
2022/04/08 04:44:58;;;;;;;4.05;1.38;;;;;;;;;;5103495;28;20279;-68
2022/04/08 04:47:24;;;;;;;3.67;1.20;;;;;;;;;;5102875;28;20215;-68
2022/04/08 04:49:51;;;;;;;5.82;1.50;;;;;;;;;;5103619;28;20204;-68
2022/04/08 04:52:18;;;;;;;9.00;1.60;;;;;;;;;;5103603;28;20200;-68
2022/04/08 04:54:44;;;;;;;5.82;1.20;;;;;;;;;;5103341;28;20196;-68
2022/04/08 04:57:11;;;;;;;7.45;1.50;;;;;;;;;;5103049;28;20203;-68
2022/04/08 04:59:37;;;;;;;6.47;1.73;;;;;;;;;;5103073;28;20200;-68
2022/04/08 05:02:03;;;;;;;6.70;1.38;;;;;;;;;;5103115;28;20203;-68
2022/04/08 05:04:30;;;;;;;9.98;1.30;;;;;;;;;;5102970;28;20241;-68
2022/04/08 05:06:56;;;;;;;9.55;1.48;;;;;;;;;;5102893;28;20258;-68
2022/04/08 05:09:23;;;;;;;5.45;1.42;;;;;;;;;;5103050;28;20195;-68
2022/04/08 05:11:50;;;;;;;7.50;1.40;;;;;;;;;;5103092;28;20195;-60
2022/04/08 05:14:16;;;;;;;5.22;1.73;;;;;;;;;;5102831;28;20199;-59
2022/04/08 05:16:42;;;;;;;4.78;1.30;;;;;;;;;;5102252;28;20202;-59
2022/04/08 05:19:09;;;;;;;3.95;1.20;;;;;;;;;;5102580;28;20203;-59
2022/04/08 05:21:35;;;;;;;7.38;3.20;;;;;;;;;;5091664;28;20224;-58
2022/04/08 05:24:02;;;;;;;2.22;1.20;;;;;;;;;;5085173;28;20266;-59
2022/04/08 05:26:29;;;;;;;5.68;1.45;;;;;;;;;;5092430;28;20449;-60
2022/04/08 05:28:55;;;;;;;5.60;1.15;;;;;;;;;;5096558;28;20211;-60
2022/04/08 05:31:22;;;;;;;4.70;1.45;;;;;;;;;;5096859;28;20204;-58
2022/04/08 05:33:48;;;;;;;4.57;1.17;;;;;;;;;;5096052;28;20219;-59
2022/04/08 05:36:14;;;;;;;4.90;1.10;;;;;;;;;;5096671;28;20212;-57
2022/04/08 05:38:40;;;;;;;4.13;1.45;;;;;;;;;;5096633;28;20211;-57
2022/04/08 05:41:07;;;;;;;7.15;1.52;;;;;;;;;;5096873;28;20212;-58
2022/04/08 05:43:34;;;;;;;3.85;1.50;;;;;;;;;;5096046;28;20430;-59
2022/04/08 05:46:00;;;;;;;6.70;2.08;;;;;;;;;;5096221;28;20426;-59
2022/04/08 05:48:27;;;;;;;5.78;2.00;;;;;;;;;;5096050;28;20555;-58
2022/04/08 05:50:53;;;;;;;5.90;1.40;;;;;;;;;;5096091;28;20539;-58
2022/04/08 05:53:21;;;;;;;4.53;1.75;;;;;;;;;;5095774;28;20253;-59
2022/04/08 05:55:47;;;;;;;4.32;1.17;;;;;;;;;;5095847;28;20447;-58
2022/04/08 05:58:13;;;;;;;6.68;1.40;;;;;;;;;;5095836;28;20386;-57
2022/04/08 06:00:41;;;;;;;7.47;1.88;;;;;;;;;;5095867;28;20258;-57
2022/04/08 06:03:07;;;;;;;2.67;1.40;;;;;;;;;;5094082;28;20219;-58
2022/04/08 06:05:33;;;;;;;6.28;1.30;;;;;;;;;;5095797;28;20570;-58
2022/04/08 06:08:01;;;;;;;9.13;1.30;;;;;;;;;;5094256;28;20231;-56
2022/04/08 06:10:27;;;;;;;4.20;1.30;;;;;;;;;;5096023;28;20234;-57
2022/04/08 06:12:54;;;;;;;4.65;1.20;;;;;;;;;;5096427;28;20207;-58
2022/04/08 06:15:21;;;;;;;4.32;1.00;;;;;;;;;;5096514;28;20215;-57
2022/04/08 06:17:48;;;;;;;4.93;1.02;;;;;;;;;;5095628;28;20399;-58
2022/04/08 06:20:16;;;;;;;1.05;0.85;;;;;;;;;;5096408;28;20548;-59
2022/04/08 06:22:42;;;;;;;4.43;1.20;;;;;;;;;;5096049;28;20196;-57
2022/04/08 06:25:09;;;;;;;2.55;0.98;;;;;;;;;;5095806;28;20527;-59
2022/04/08 06:27:36;;;;;;;5.85;1.30;;;;;;;;;;5095168;28;20234;-57
2022/04/08 06:30:02;;;;;;;4.18;1.50;;;;;;;;;;5098815;28;20211;-57
2022/04/08 06:32:28;;;;;;;3.72;1.20;;;;;;;;;;5099709;28;20211;-59
2022/04/08 06:34:56;;;;;;;2.75;1.17;;;;;;;;;;5099817;28;20595;-59
2022/04/08 06:37:27;;;;;;;3.70;1.17;;;;;;;;;;5088680;28;20378;-59
2022/04/08 06:39:53;;;;;;;6.38;1.50;;;;;;;;;;5098608;28;20220;-59
2022/04/08 06:42:19;;;;;;;6.93;1.45;;;;;;;;;;5099413;28;20458;-59
2022/04/08 06:44:45;;;;;;;5.15;1.10;;;;;;;;;;5100124;28;20530;-58
2022/04/08 06:47:12;;;;;;;3.92;1.23;;;;;;;;;;5099428;28;20576;-59
2022/04/08 06:49:43;;;;;;;1.75;1.23;;;;;;;;;;5099060;28;20208;-59
2022/04/08 06:52:10;;;;;;;3.95;1.20;;;;;;;;;;5099329;28;20203;-59
2022/04/08 06:54:37;;;;;;;6.95;1.42;;;;;;;;;;5099577;28;20467;-57
2022/04/08 06:57:03;;;;;;;2.80;1.02;;;;;;;;;;5099337;28;20208;-59
2022/04/08 06:59:29;;;;;;;2.40;1.10;;;;;;;;;;5095720;28;20399;-59
2022/04/08 07:01:56;;;;;;;3.28;1.27;;;;;;;;;;5093300;28;20212;-56
2022/04/08 07:04:22;;;;;;;2.58;1.00;;;;;;;;;;5099238;28;20249;-57
2022/04/08 07:06:48;;;;;;;2.63;1.10;;;;;;;;;;5098714;28;20265;-57
2022/04/08 07:09:16;;;;;;;2.13;0.70;;;;;;;;;;5098838;28;20604;-58
2022/04/08 07:11:42;;;;;;;2.05;0.85;;;;;;;;;;5096534;28;20534;-59
2022/04/08 07:14:08;;;;;;;2.13;1.08;;;;;;;;;;5099352;28;20211;-59
2022/04/08 07:16:34;;;;;;;3.60;0.80;;;;;;;;;;5098742;28;20220;-58
2022/04/08 07:19:01;;;;;;;2.63;0.90;;;;;;;;;;5099230;28;20276;-57
2022/04/08 07:21:27;;;;;;;1.95;0.90;;;;;;;;;;5098414;28;20208;-58
2022/04/08 07:23:53;;;;;;;4.65;1.15;;;;;;;;;;5098804;28;20554;-56
2022/04/08 07:26:21;;;;;;;2.05;1.10;;;;;;;;;;5099262;28;20200;-58
2022/04/08 07:28:47;;;;;;;3.25;1.00;;;;;;;;;;5100103;28;20234;-58
2022/04/08 07:31:14;;;;;;;2.63;1.20;;;;;;;;;;5098939;28;20212;-58
2022/04/08 07:33:40;;;;;;;2.00;0.80;;;;;;;;;;5098327;28;20219;-60
2022/04/08 07:36:06;;;;;;;2.17;0.88;;;;;;;;;;5091151;28;20531;-59
2022/04/08 07:38:33;;;;;;;1.63;0.70;;;;;;;;;;5078487;28;20192;-59
2022/04/08 07:40:59;;;;;;;0.77;0.77;;;;;;;;;;5088770;28;20392;-58
2022/04/08 07:43:27;;;;;;;2.72;0.98;;;;;;;;;;5096156;28;20378;-60
2022/04/08 07:45:53;;;;;;;3.58;0.95;;;;;;;;;;5098683;28;20447;-60
2022/04/08 07:48:21;;;;;;;1.65;1.00;;;;;;;;;;5098179;28;20452;-61
2022/04/08 07:50:47;;;;;;;3.47;1.38;;;;;;;;;;5098356;28;20245;-61
2022/04/08 07:53:13;;;;;;;2.35;1.60;;;;;;;;;;5097830;28;20211;-61
2022/04/08 07:55:40;;;;;;;2.35;1.20;;;;;;;;;;5098468;28;20253;-61
2022/04/08 07:58:06;;;;;;;3.25;0.93;;;;;;;;;;5098115;28;20527;-61
2022/04/08 08:00:34;;;;;;;1.75;0.70;;;;;;;;;;5098652;28;20216;-61
2022/04/08 08:03:00;;;;;;;2.53;0.90;;;;;;;;;;5097628;28;20214;-61
2022/04/08 08:05:27;;;;;;;2.55;0.90;;;;;;;;;;5097930;28;20223;-61
2022/04/08 08:07:54;;;;;;;3.83;0.85;;;;;;;;;;5097599;28;20426;-61
2022/04/08 08:10:21;;;;;;;2.88;1.10;;;;;;;;;;5098083;28;20208;-61
2022/04/08 08:12:47;;;;;;;1.00;0.90;;;;;;;;;;5097798;28;20248;-61
2022/04/08 08:15:15;;;;;;;2.90;1.25;;;;;;;;;;5097731;28;20204;-61
2022/04/08 08:17:42;;;;;;;3.67;0.90;;;;;;;;;;5097684;28;20204;-61
2022/04/08 08:20:09;;;;;;;1.13;1.00;;;;;;;;;;5097609;28;20241;-61
2022/04/08 08:22:36;;;;;;;5.10;0.80;;;;;;;;;;5097870;28;20212;-60
2022/04/08 08:25:02;;;;;;;5.88;0.70;;;;;;;;;;5097604;28;20641;-61
2022/04/08 08:27:28;;;;;;;1.30;0.77;;;;;;;;;;5097951;28;20212;-60
2022/04/08 08:29:55;;;;;;;1.42;0.80;;;;;;;;;;5098444;28;20207;-59
2022/04/08 08:32:21;;;;;;;1.20;1.08;;;;;;;;;;5097534;28;20204;-61
2022/04/08 08:34:49;;;;;;;2.88;2.17;;;;;;;;;;5097280;28;20238;-60
2022/04/08 08:37:15;;;;;;;0.50;0.50;;;;;;;;;;5097561;28;20211;-61
2022/04/08 08:39:41;;;;;;;1.10;0.85;;;;;;;;;;5097614;28;20433;-61
2022/04/08 08:42:09;;;;;;;1.83;0.60;;;;;;;;;;5097405;28;20207;-59
2022/04/08 08:44:35;;;;;;;2.17;1.05;;;;;;;;;;5097748;28;20211;-59
2022/04/08 08:47:02;;;;;;;1.83;0.95;;;;;;;;;;5096940;28;20211;-61
2022/04/08 08:49:30;;;;;;;3.72;1.90;;;;;;;;;;5097234;28;20228;-59
2022/04/08 08:51:59;;;;;;;2.97;1.00;;;;;;;;;;5097028;28;20207;-61
2022/04/08 08:54:25;;;;;;;1.13;1.02;;;;;;;;;;5097309;28;20207;-61
2022/04/08 08:56:52;;;;;;;1.58;0.98;;;;;;;;;;5097016;28;20211;-61
2022/04/08 08:59:18;;;;;;;3.00;1.00;;;;;;;;;;5097707;28;20212;-61
2022/04/08 09:01:44;;;;;;;5.68;1.33;;;;;;;;;;5096850;28;20207;-62
2022/04/08 09:04:11;;;;;;;1.25;1.10;;;;;;;;;;5097194;28;20200;-59
2022/04/08 09:06:40;;;;;;;3.13;1.05;;;;;;;;;;5096386;28;20220;-61
2022/04/08 09:09:11;;;;;;;1.60;1.05;;;;;;;;;;5097433;28;20529;-62
2022/04/08 09:11:37;;;;;;;2.05;0.90;;;;;;;;;;5097144;28;20425;-61
2022/04/08 09:14:04;;;;;;;1.05;0.85;;;;;;;;;;5097169;28;20207;-60
2022/04/08 09:16:35;;;;;;;2.95;0.70;;;;;;;;;;5096623;28;20538;-61
2022/04/08 09:19:09;;;;;;;2.42;0.63;;;;;;;;;;5096875;28;20204;-60
2022/04/08 09:21:35;;;;;;;3.38;1.00;;;;;;;;;;5097002;28;20460;-61
2022/04/08 09:24:05;;;;;;;1.38;0.95;;;;;;;;;;5096895;28;20273;-61
2022/04/08 09:26:36;;;;;;;1.38;0.80;;;;;;;;;;5096812;28;20241;-61
2022/04/08 09:29:02;;;;;;;1.33;1.08;;;;;;;;;;5096502;28;20227;-64
2022/04/08 09:31:28;;;;;;;1.23;0.70;;;;;;;;;;5096758;28;20207;-61
2022/04/08 09:33:54;;;;;;;1.85;0.90;;;;;;;;;;5096617;28;20244;-61
2022/04/08 09:36:28;;;;;;;2.25;0.85;;;;;;;;;;5096473;28;20207;-61
2022/04/08 09:38:54;;;;;;;1.35;1.20;;;;;;;;;;5096360;28;20507;-62
2022/04/08 09:41:20;;;;;;;8.35;6.05;;;;;;;;;;5096619;28;20549;-62
2022/04/08 09:43:49;;;;;;;0.85;0.85;;;;;;;;;;5096702;28;20516;-61
2022/04/08 09:46:16;;;;;;;0.60;0.60;;;;;;;;;;5096587;28;20212;-62
2022/04/08 09:48:43;;;;;;;2.67;1.02;;;;;;;;;;5096363;28;20227;-62
2022/04/08 09:51:10;;;;;;;2.22;1.00;;;;;;;;;;5097100;28;20211;-62
2022/04/08 09:53:37;;;;;;;1.10;0.73;;;;;;;;;;5096593;28;20208;-61
2022/04/08 09:56:04;;;;;;;1.13;0.70;;;;;;;;;;5096425;28;20265;-61
2022/04/08 09:58:31;;;;;;;1.52;0.70;;;;;;;;;;5096144;28;20203;-62
2022/04/08 10:00:59;;;;;;;1.73;0.70;;;;;;;;;;5096738;28;20479;-62
2022/04/08 10:03:25;;;;;;;1.27;0.85;;;;;;;;;;5096719;28;20211;-61
2022/04/08 10:05:52;;;;;;;2.00;0.82;;;;;;;;;;5100608;28;20276;-61
2022/04/08 10:08:18;;;;;;;2.30;1.00;;;;;;;;;;5100276;28;20525;-62
2022/04/08 10:10:48;;;;;;;3.33;1.23;;;;;;;;;;5100031;28;20211;-61
2022/04/08 10:13:27;;;;;;;1.45;0.65;;;;;;;;;;5100216;28;20569;-61
2022/04/08 10:16:01;;;;;;;1.10;0.68;;;;;;;;;;5100615;28;20215;-61
2022/04/08 10:18:33;;;;;;;2.08;1.23;;;;;;;;;;5080233;28;20250;-61
2022/04/08 10:20:59;;;;;;;1.65;0.70;;;;;;;;;;5095494;28;20211;-60
2022/04/08 10:23:34;;;;;;;1.25;1.20;;;;;;;;;;5100120;28;20381;-59
2022/04/08 10:26:02;;;;;;;0.85;0.70;;;;;;;;;;5100685;28;20207;-59
2022/04/08 10:28:34;;;;;;;0.80;0.80;;;;;;;;;;5100122;28;20441;-61
2022/04/08 10:31:01;;;;;;;0.70;0.70;;;;;;;;;;5100275;28;20220;-61
2022/04/08 10:33:28;;;;;;;1.02;0.70;;;;;;;;;;5099949;28;20203;-61
2022/04/08 10:35:56;;;;;;;2.55;0.70;;;;;;;;;;5100309;28;20793;-61
2022/04/08 10:38:22;;;;;;;1.17;0.80;;;;;;;;;;5100135;28;20405;-61
2022/04/08 10:40:53;;;;;;;1.92;0.70;;;;;;;;;;5100130;28;20253;-61
2022/04/08 10:43:19;;;;;;;0.50;0.50;;;;;;;;;;5090665;28;20212;-61
2022/04/08 10:45:53;;;;;;;1.05;0.90;;;;;;;;;;5090299;28;20203;-61
2022/04/08 10:48:20;;;;;;;0.90;0.57;;;;;;;;;;5082173;28;20209;-61
2022/04/08 10:50:46;;;;;;;0.82;0.80;;;;;;;;;;5079587;28;20208;-59
2022/04/08 10:53:13;;;;;;;1.60;0.77;;;;;;;;;;5079239;28;20212;-61
2022/04/08 10:55:47;;;;;;;0.70;0.65;;;;;;;;;;5079314;28;20209;-59
2022/04/08 10:58:15;;;;;;;0.50;0.50;;;;;;;;;;5079005;28;20251;-60
2022/04/08 11:00:41;;;;;;;1.45;0.88;;;;;;;;;;5078776;28;20282;-61
2022/04/08 11:03:09;;;;;;;4.45;0.77;;;;;;;;;;5078922;28;20324;-61
2022/04/08 11:05:38;;;;;;;0.95;0.60;;;;;;;;;;5078893;28;20224;-62
2022/04/08 11:08:05;;;;;;;0.50;0.50;;;;;;;;;;5078991;28;20208;-61
2022/04/08 11:10:32;;;;;;;0.80;0.80;;;;;;;;;;5078970;28;20228;-62
2022/04/08 11:12:59;;;;;;;2.95;0.85;;;;;;;;;;5078456;28;20208;-62
2022/04/08 11:15:28;;;;;;;0.63;0.60;;;;;;;;;;5077461;28;20240;-62
2022/04/08 11:17:54;;;;;;;0.50;0.50;;;;;;;;;;5095589;28;20208;-62
2022/04/08 11:20:21;;;;;;;1.92;0.60;;;;;;;;;;5099577;28;20207;-61
2022/04/08 11:22:52;;;;;;;0.70;0.50;;;;;;;;;;5099100;28;20207;-62
2022/04/08 11:25:22;;;;;;;0.63;0.63;;;;;;;;;;5099639;28;20250;-62
2022/04/08 11:27:57;;;;;;;1.17;0.60;;;;;;;;;;5099219;28;20207;-61
2022/04/08 11:30:24;;;;;;;1.20;0.85;;;;;;;;;;5098739;28;20227;-61
2022/04/08 11:32:50;;;;;;;1.73;1.00;;;;;;;;;;5098872;28;20212;-61
2022/04/08 11:35:17;;;;;;;0.93;0.80;;;;;;;;;;5099158;28;20257;-60
2022/04/08 11:37:43;;;;;;;0.60;0.60;;;;;;;;;;5098736;28;20245;-62
2022/04/08 11:40:16;;;;;;;3.53;0.98;;;;;;;;;;5098468;28;20207;-60
2022/04/08 11:42:42;;;;;;;1.90;0.93;;;;;;;;;;5098692;28;20211;-61
2022/04/08 11:45:10;;;;;;;2.95;0.88;;;;;;;;;;5098854;28;20475;-62
2022/04/08 11:47:40;;;;;;;0.85;0.85;;;;;;;;;;5098818;28;20245;-62
2022/04/08 11:50:07;;;;;;;3.20;1.05;;;;;;;;;;5098329;28;20231;-61
2022/04/08 11:52:34;;;;;;;2.10;1.00;;;;;;;;;;5092256;28;20261;-62
2022/04/08 11:55:04;;;;;;;1.98;0.60;;;;;;;;;;5094260;28;20245;-62
2022/04/08 11:57:33;;;;;;;2.95;0.80;;;;;;;;;;5086734;28;20245;-62
2022/04/08 12:00:01;;;;;;;1.00;1.00;;;;;;;;;;5094015;28;20216;-62
2022/04/08 12:02:28;;;;;;;1.00;1.00;;;;;;;;;;5097965;28;20227;-62
2022/04/08 12:04:55;;;;;;;2.75;1.50;;;;;;;;;;5098097;28;20208;-62
2022/04/08 12:07:22;;;;;;;1.23;1.13;;;;;;;;;;5097890;28;20597;-62
2022/04/08 12:09:48;;;;;;;1.05;1.00;;;;;;;;;;5098335;28;20255;-61
2022/04/08 12:12:15;;;;;;;0.85;0.70;;;;;;;;;;5098073;28;20404;-60
2022/04/08 12:14:42;;;;;;;0.82;0.82;;;;;;;;;;5098448;28;20208;-62
2022/04/08 12:17:09;;;;;;;1.33;0.88;;;;;;;;;;5098525;28;20211;-62
2022/04/08 12:19:39;;;;;;;1.00;0.93;;;;;;;;;;5098178;28;20204;-60
2022/04/08 12:22:09;;;;;;;0.80;0.80;;;;;;;;;;5097982;28;20249;-59
2022/04/08 12:24:36;;;;;;;1.25;1.25;;;;;;;;;;5098383;28;20207;-58
2022/04/08 12:27:10;;;;;;;1.25;1.10;;;;;;;;;;5089514;28;20515;-59
2022/04/08 12:29:39;;;;;;;2.10;1.52;;;;;;;;;;5078026;28;20227;-60
2022/04/08 12:32:12;;;;;;;3.17;1.60;;;;;;;;;;5077371;28;20208;-59
2022/04/08 12:34:38;;;;;;;1.00;1.00;;;;;;;;;;5077750;28;20212;-59
2022/04/08 12:37:05;;;;;;;1.10;1.00;;;;;;;;;;5077532;28;20207;-60
2022/04/08 12:39:31;;;;;;;1.73;1.05;;;;;;;;;;5077095;28;20212;-60
2022/04/08 12:41:59;;;;;;;1.63;0.80;;;;;;;;;;5077138;28;20261;-60
2022/04/08 12:44:25;;;;;;;1.58;1.48;;;;;;;;;;5086722;28;20208;-59
2022/04/08 12:46:52;;;;;;;0.90;0.90;;;;;;;;;;5097567;28;20212;-60
2022/04/08 12:49:19;;;;;;;1.27;0.82;;;;;;;;;;5097440;28;20219;-61
2022/04/08 12:51:46;;;;;;;1.85;0.90;;;;;;;;;;5097161;28;20212;-62
2022/04/08 12:54:12;;;;;;;0.98;0.98;;;;;;;;;;5097335;28;20208;-62
2022/04/08 12:56:38;;;;;;;1.50;0.85;;;;;;;;;;5097369;28;20207;-62
2022/04/08 12:59:05;;;;;;;0.80;0.80;;;;;;;;;;5097424;28;20207;-62
2022/04/08 13:01:31;;;;;;;0.93;0.88;;;;;;;;;;5097199;28;20227;-61
2022/04/08 13:03:57;;;;;;;0.82;0.82;;;;;;;;;;5097298;28;20210;-59
2022/04/08 13:06:26;;;;;;;1.25;1.13;;;;;;;;;;5096844;28;20423;-60
2022/04/08 13:08:52;;;;;;;0.98;0.98;;;;;;;;;;5097299;28;20474;-61
2022/04/08 13:11:18;;;;;;;0.88;0.88;;;;;;;;;;5097056;28;20199;-62
2022/04/08 13:13:44;;;;;;;3.08;2.78;;;;;;;;;;5096191;28;20261;-61
2022/04/08 13:16:11;;;;;;;2.80;1.90;;;;;;;;;;5096825;28;20442;-60
2022/04/08 13:18:37;;;;;;;1.50;1.50;;;;;;;;;;5097122;28;20279;-61
2022/04/08 13:21:04;;;;;;;2.72;1.92;;;;;;;;;;5098390;28;20195;-61
2022/04/08 13:23:31;;;;;;;1.70;1.60;;;;;;;;;;5102547;28;20200;-61
2022/04/08 13:25:57;;;;;;;3.03;1.33;;;;;;;;;;5102303;28;20195;-61
2022/04/08 13:28:24;;;;;;;1.88;1.55;;;;;;;;;;5102375;28;20483;-61
2022/04/08 13:30:50;;;;;;;1.58;1.58;;;;;;;;;;5102362;28;20261;-61
2022/04/08 13:33:16;;;;;;;3.10;2.75;;;;;;;;;;5102478;28;20437;-59
2022/04/08 13:35:42;;;;;;;3.50;3.20;;;;;;;;;;5102384;28;20200;-60
2022/04/08 13:38:09;;;;;;;4.47;3.00;;;;;;;;;;5101536;28;20203;-59
2022/04/08 13:40:36;;;;;;;3.42;2.83;;;;;;;;;;5102414;28;20192;-60
2022/04/08 13:43:04;;;;;;;2.38;2.15;;;;;;;;;;5102250;28;20211;-60
2022/04/08 13:45:30;;;;;;;2.05;1.95;;;;;;;;;;5102425;28;20526;-60
2022/04/08 13:47:56;;;;;;;2.15;2.00;;;;;;;;;;5102259;28;20369;-60
2022/04/08 13:50:22;;;;;;;1.50;1.50;;;;;;;;;;5102355;28;20411;-61
2022/04/08 13:52:49;;;;;;;2.10;2.00;;;;;;;;;;5102329;28;20429;-61
2022/04/08 13:55:15;;;;;;;2.28;2.08;;;;;;;;;;5102321;28;20218;-61
2022/04/08 13:57:42;;;;;;;1.90;1.80;;;;;;;;;;5101899;28;20199;-60
2022/04/08 14:00:09;;;;;;;3.92;2.03;;;;;;;;;;5102284;28;20393;-61
2022/04/08 14:02:38;;;;;;;1.50;1.13;;;;;;;;;;5102337;28;20196;-61
2022/04/08 14:05:04;;;;;;;1.95;1.60;;;;;;;;;;5102230;28;20216;-61
2022/04/08 14:07:30;;;;;;;1.88;1.77;;;;;;;;;;5102035;28;20196;-61
2022/04/08 14:09:58;;;;;;;4.20;1.92;;;;;;;;;;5102071;28;20216;-62
2022/04/08 14:12:25;;;;;;;1.48;1.42;;;;;;;;;;5102104;28;20302;-62
2022/04/08 14:14:52;;;;;;;2.25;1.52;;;;;;;;;;5102158;28;20196;-62
2022/04/08 14:17:19;;;;;;;1.80;1.80;;;;;;;;;;5101850;28;20391;-62
2022/04/08 14:19:45;;;;;;;2.42;1.90;;;;;;;;;;5102047;28;20535;-62
2022/04/08 14:22:11;;;;;;;1.50;1.50;;;;;;;;;;5102033;28;20241;-62
2022/04/08 14:24:38;;;;;;;1.92;1.85;;;;;;;;;;5101909;28;20233;-62
2022/04/08 14:27:04;;;;;;;2.58;2.42;;;;;;;;;;5101983;28;20196;-62
2022/04/08 14:29:30;;;;;;;2.47;2.28;;;;;;;;;;5102021;28;20207;-62
2022/04/08 14:31:58;;;;;;;3.33;2.78;;;;;;;;;;5102114;28;20229;-62
2022/04/08 14:34:27;;;;;;;3.67;2.72;;;;;;;;;;5102115;28;20195;-62
2022/04/08 14:36:53;;;;;;;3.85;3.55;;;;;;;;;;5101691;28;20549;-62
2022/04/08 14:39:19;;;;;;;7.97;6.30;;;;;;;;;;5101721;28;20500;-62
2022/04/08 14:41:46;;;;;;;3.50;3.28;;;;;;;;;;5101982;28;20503;-63